Impacts METAR Board
IDs:

KJFK - New York/Kennedy Int, NY, US

Updated at: 0200 UTC 16 Oct 2018
Potential Impact None Slight Moderate High
Time 15/14Z 15/15Z 15/16Z 15/17Z 15/18Z 15/19Z 15/20Z 15/21Z 15/22Z 15/23Z 16/00Z 16/01Z 16/02Z
Temp63 62 63 64 65 65 65 65 65 66 67 68 68
Dewpt58 60 62 64 64 64 64 64 64 66 66 65 66
Altim30.13 30.11 30.08 30.03 30.01 29.99 29.97 29.95 29.91 29.91 29.90 29.88 29.88
VIS10 4 6 10 10 10 10 10 10 10 10 10 10
CIG28 26 14 14 12 12 14 160 110 15 50 85 65
CoverOVCOVCOVCOVCOVCOVCOVCOVCOVCBKNOVCBKNOVC
FltCatMVFRMVFRMVFRMVFRMVFRMVFRMVFRVFRVFRMVFRVFRVFRVFR
WX--RA BR-RA BR--------------------
WDir190200200210220230230210210210220220220
WSpd14 14 18 14 12 16 14 9 10 9 15 18 14
WGst-- -- -- -- -- -- -- -- -- -- -- -- --
Raw hourly METARs
KJFK 151351Z 19014KT 10SM FEW016 OVC028 17/14 A3013 RMK AO2 RAE16 SLP201 VCSH NW-NE P0000 T01720144 $
KJFK 151451Z 20014KT 4SM RA BR OVC026 17/16 A3011 RMK AO2 RAB1352E07B27 SLP197 P0003 60004 T01670156 56013 $
KJFK 151551Z 20018KT 6SM -RA BR BKN014 OVC027 17/17 A3008 RMK AO2 SLP186 P0002 T01720167 $
KJFK 151651Z 21014KT 10SM FEW010 BKN014 OVC022 18/18 A3003 RMK AO2 RAE10 SLP170 P0000 T01780178 $
KJFK 151751Z 22012KT 10SM OVC012 18/18 A3001 RMK AO2 SLP162 60006 T01830178 10183 20150 56035 $
KJFK 151851Z 23016KT 10SM OVC012 18/18 A2999 RMK AO2 SLP156 T01830178 $
KJFK 151951Z 23014KT 10SM OVC014 18/18 A2997 RMK AO2 SLP149 T01830178 $
KJFK 152051Z 21009KT 10SM FEW011 SCT048 SCT075 OVC160 18/18 A2995 RMK AO2 SLP142 T01830178 58020 $
KJFK 152151Z 21010KT 10SM SCT016 BKN110 OVC140 18/18 A2991 RMK AO2 SLP129 SCT V BKN T01830178 $
KJFK 152251Z 21009KT 10SM BKN015 BKN110 BKN130 BKN200 19/19 A2991 RMK AO2 SLP128 T01890189 $
KJFK 152351Z 22015KT 10SM SCT015 BKN050 BKN120 OVC170 19/19 A2990 RMK AO2 SLP125 T01940189 10194 20183 56017 $
KJFK 160051Z 22018KT 10SM FEW015 BKN085 BKN120 BKN150 BKN210 20/18 A2988 RMK AO2 RAB2353E28 SLP118 P0001 T02000183 $
KJFK 160151Z 22014KT 10SM FEW015 BKN065 BKN140 OVC250 20/19 A2988 RMK AO2 SLP116 T02000189 $



Page loaded:  02:43 UTC  |   07:43 PM Pacific  |   08:43 PM Mountain  |   09:43 PM Central  |   10:43 PM Eastern

 

ADVISORIES

FORECASTS

FORECASTS

OBSERVATIONS

USER TOOLS

ABOUT US